Time;durP1;ratioP1;P1;durP2;ratioP2;P2;SDS_P1;SDS_P2;PMS_P1;PMS_P2;Temp;Humidity;BMP_temperature;BMP_pressure;BME280_temperature;BME280_humidity;BME280_pressure;Samples;Min_cycle;Max_cycle;Signal;HPM_P1;HPM_P2
2022/03/23 00:00:33;;;;;;;14.40;8.77;;;;;;;-0.24;70.86;102507.91;4991767;28;20037;-77
2022/03/23 00:03:00;;;;;;;16.47;9.83;;;;;;;-0.22;70.75;102507.16;4983206;28;20041;-77
2022/03/23 00:05:28;;;;;;;14.43;9.07;;;;;;;-0.26;70.97;102504.28;4964058;28;20042;-78
2022/03/23 00:07:56;;;;;;;16.60;10.17;;;;;;;-0.22;70.85;102508.88;4992174;28;20034;-77
2022/03/23 00:10:23;;;;;;;12.43;8.43;;;;;;;-0.28;71.45;102510.31;4987759;28;20043;-77
2022/03/23 00:12:51;;;;;;;16.33;9.17;;;;;;;-0.30;71.45;102504.16;4972575;28;20448;-76
2022/03/23 00:15:20;;;;;;;15.07;8.77;;;;;;;-0.32;71.78;102497.09;4956246;28;20489;-76
2022/03/23 00:17:47;;;;;;;16.00;9.07;;;;;;;-0.26;71.76;102492.19;4972140;28;20038;-76
2022/03/23 00:20:15;;;;;;;15.20;9.63;;;;;;;-0.30;71.36;102496.34;4963584;28;20437;-76
2022/03/23 00:22:41;;;;;;;14.20;8.73;;;;;;;-0.35;70.94;102492.59;4992385;28;20048;-76
2022/03/23 00:25:08;;;;;;;20.00;10.27;;;;;;;-0.40;71.18;102486.31;4974091;28;20050;-76
2022/03/23 00:27:35;;;;;;;16.03;9.13;;;;;;;-0.38;71.20;102484.66;4972915;28;20046;-77
2022/03/23 00:30:03;;;;;;;14.93;8.97;;;;;;;-0.46;70.71;102492.88;4956176;28;20405;-76
2022/03/23 00:32:29;;;;;;;17.00;9.73;;;;;;;-0.42;71.26;102492.19;4985426;28;20096;-77
2022/03/23 00:34:56;;;;;;;18.30;10.80;;;;;;;-0.49;71.29;102487.53;4959672;28;20046;-76
2022/03/23 00:37:23;;;;;;;16.53;9.57;;;;;;;-0.42;71.67;102495.72;4956720;28;20046;-76
2022/03/23 00:39:50;;;;;;;18.03;10.77;;;;;;;-0.45;72.13;102494.66;4959856;28;20061;-76
2022/03/23 00:42:19;;;;;;;18.00;9.73;;;;;;;-0.46;71.70;102485.97;4967367;28;20524;-77
2022/03/23 00:44:46;;;;;;;15.47;9.57;;;;;;;-0.60;72.17;102486.91;5008648;28;20056;-76
2022/03/23 00:47:14;;;;;;;19.00;11.33;;;;;;;-0.62;72.57;102484.25;4957029;28;20094;-76
2022/03/23 00:49:43;;;;;;;18.20;10.87;;;;;;;-0.60;72.22;102482.63;4975382;28;20704;-77
2022/03/23 00:52:12;;;;;;;16.40;9.97;;;;;;;-0.63;72.88;102478.97;4991542;28;20042;-77
2022/03/23 00:54:39;;;;;;;17.80;10.90;;;;;;;-0.70;73.04;102475.16;4986048;28;20379;-77
2022/03/23 00:57:06;;;;;;;18.43;10.73;;;;;;;-0.68;73.62;102483.00;4991890;28;20058;-77
2022/03/23 00:59:34;;;;;;;17.53;9.50;;;;;;;-0.66;73.09;102471.94;4973535;28;20502;-76
2022/03/23 01:02:04;;;;;;;17.47;10.17;;;;;;;-0.74;73.63;102475.81;4990818;28;20045;-76
2022/03/23 01:04:32;;;;;;;18.40;11.00;;;;;;;-0.71;73.43;102469.88;5008065;28;20041;-77
2022/03/23 01:06:59;;;;;;;17.03;10.67;;;;;;;-0.74;73.45;102468.03;4955284;28;20582;-76
2022/03/23 01:09:25;;;;;;;16.33;10.17;;;;;;;-0.73;73.44;102462.03;4988583;28;20618;-76
2022/03/23 01:11:53;;;;;;;18.87;11.10;;;;;;;-0.82;73.42;102466.72;4990900;28;20045;-79
2022/03/23 01:14:22;;;;;;;15.47;10.30;;;;;;;-0.89;74.06;102462.88;4995527;28;20053;-77
2022/03/23 01:16:50;;;;;;;15.47;9.83;;;;;;;-0.88;73.88;102463.78;4975697;28;20572;-76
2022/03/23 01:19:22;;;;;;;17.27;9.97;;;;;;;-0.74;73.32;102455.03;5006515;28;20044;-76
2022/03/23 01:21:49;;;;;;;16.97;10.17;;;;;;;-0.77;73.77;102456.56;4977288;28;20045;-77
2022/03/23 01:24:16;;;;;;;18.27;10.30;;;;;;;-0.87;74.39;102444.78;4974549;28;20414;-76
2022/03/23 01:26:44;;;;;;;14.80;9.87;;;;;;;-0.95;75.10;102459.94;4994913;28;20519;-76
2022/03/23 01:29:16;;;;;;;17.07;10.43;;;;;;;-0.97;75.33;102453.78;4994245;28;20049;-76
2022/03/23 01:31:46;;;;;;;15.23;9.20;;;;;;;-0.95;75.26;102452.16;4977853;28;20058;-77
2022/03/23 01:34:14;;;;;;;18.47;10.37;;;;;;;-0.85;75.03;102448.34;4958325;28;20046;-77
2022/03/23 01:36:41;;;;;;;19.37;10.97;;;;;;;-0.94;75.15;102450.44;4977519;28;20052;-76
2022/03/23 01:39:08;;;;;;;16.63;10.13;;;;;;;-1.03;75.71;102450.84;4993392;28;20073;-76
2022/03/23 01:41:39;;;;;;;18.43;10.83;;;;;;;-1.07;75.43;102446.31;4962330;28;20046;-76
2022/03/23 01:44:20;;;;;;;17.67;9.70;;;;;;;-1.06;75.91;102444.59;4986920;28;20433;-77
2022/03/23 01:47:13;;;;;;;17.40;10.80;;;;;;;-0.96;75.18;102441.72;4975530;28;20059;-78
2022/03/23 01:49:47;;;;;;;16.97;11.33;;;;;;;-0.84;74.46;102450.19;4975220;28;20035;-78
2022/03/23 01:52:18;;;;;;;22.63;11.37;;;;;;;-0.78;74.88;102445.28;4988408;28;20489;-76
2022/03/23 01:54:45;;;;;;;15.90;10.30;;;;;;;-0.81;76.13;102441.66;4989962;28;20112;-76
2022/03/23 01:57:17;;;;;;;15.40;10.53;;;;;;;-0.99;76.22;102436.34;4971282;28;20046;-76
2022/03/23 01:59:46;;;;;;;19.30;11.50;;;;;;;-1.14;77.84;102441.59;4977669;28;20048;-77
2022/03/23 02:02:13;;;;;;;16.13;9.77;;;;;;;-1.24;78.93;102445.38;4994347;28;20037;-77
2022/03/23 02:04:40;;;;;;;19.07;11.57;;;;;;;-1.26;79.01;102447.00;4965148;28;20054;-76
2022/03/23 02:07:14;;;;;;;17.50;10.33;;;;;;;-1.24;79.03;102442.78;5010865;28;20045;-77
2022/03/23 02:09:41;;;;;;;17.25;10.30;;;;;;;-1.29;79.08;102445.91;4994237;28;20041;-76
2022/03/23 02:12:11;;;;;;;19.63;11.00;;;;;;;-1.35;79.95;102446.44;4976907;28;20038;-77
2022/03/23 02:14:38;;;;;;;17.73;10.33;;;;;;;-1.36;79.58;102448.97;4977489;28;20053;-79
2022/03/23 02:17:05;;;;;;;22.47;11.03;;;;;;;-1.33;78.91;102444.88;4979089;28;20038;-77
2022/03/23 02:19:34;;;;;;;23.47;12.13;;;;;;;-1.31;79.48;102453.63;4971801;28;20058;-76
2022/03/23 02:22:02;;;;;;;19.00;10.93;;;;;;;-1.32;79.27;102445.75;4975357;28;20052;-78
2022/03/23 02:24:31;;;;;;;19.97;12.53;;;;;;;-1.38;79.37;102451.47;4977515;28;20070;-76
2022/03/23 02:26:58;;;;;;;19.20;11.07;;;;;;;-1.45;79.46;102441.56;4970070;28;20038;-76
2022/03/23 02:29:29;;;;;;;19.33;11.67;;;;;;;-1.49;79.58;102439.63;4953126;28;20101;-77
2022/03/23 02:31:56;;;;;;;19.37;11.80;;;;;;;-1.47;79.23;102441.47;5008850;28;20030;-76
2022/03/23 02:34:25;;;;;;;18.83;10.97;;;;;;;-1.38;79.20;102441.09;4975536;28;20500;-76
2022/03/23 02:36:56;;;;;;;20.13;11.67;;;;;;;-1.43;78.99;102442.53;4981403;28;20038;-77
2022/03/23 02:39:22;;;;;;;17.87;11.17;;;;;;;-1.49;79.99;102442.22;4986583;28;20046;-76
2022/03/23 02:41:49;;;;;;;19.40;11.87;;;;;;;-1.55;80.79;102444.44;4977726;28;20042;-76
2022/03/23 02:44:17;;;;;;;21.07;12.13;;;;;;;-1.53;80.41;102435.94;4972779;28;20108;-76
2022/03/23 02:46:44;;;;;;;19.53;11.47;;;;;;;-1.58;80.62;102440.00;4989374;28;20568;-76
2022/03/23 02:49:11;;;;;;;20.70;11.37;;;;;;;-1.60;80.37;102435.50;4965096;28;20069;-76
2022/03/23 02:51:38;;;;;;;18.77;10.80;;;;;;;-1.66;80.36;102441.25;4986314;28;20038;-76
2022/03/23 03:02:38;;;;;;;18.30;11.68;;;;;;;-1.64;80.89;102436.16;4992855;28;20042;-76
2022/03/23 03:05:06;;;;;;;20.00;12.03;;;;;;;-1.67;81.25;102439.47;4991106;28;20046;-75
2022/03/23 03:10:22;;;;;;;20.00;11.70;;;;;;;-1.60;80.96;102444.16;4976161;28;20077;-75
2022/03/23 03:12:50;;;;;;;22.17;12.60;;;;;;;-1.73;82.80;102442.59;4966002;28;20068;-76
2022/03/23 03:15:20;;;;;;;21.50;11.63;;;;;;;-1.82;83.63;102436.88;4965651;28;20140;-76
2022/03/23 03:17:48;;;;;;;20.03;12.40;;;;;;;-1.84;83.44;102432.41;4988238;28;20045;-76
2022/03/23 03:20:15;;;;;;;20.53;12.10;;;;;;;-1.85;82.83;102431.53;4973042;28;20112;-76
2022/03/23 03:22:43;;;;;;;17.63;11.50;;;;;;;-1.90;83.33;102432.94;4959580;28;20042;-76
2022/03/23 03:25:14;;;;;;;18.77;11.47;;;;;;;-1.90;83.50;102430.34;4972280;28;20067;-76
2022/03/23 03:27:42;;;;;;;23.57;12.03;;;;;;;-1.92;83.52;102442.34;4992913;28;20049;-76
2022/03/23 03:30:14;;;;;;;21.37;12.07;;;;;;;-1.93;83.54;102444.81;4969059;28;20505;-75
2022/03/23 03:32:42;;;;;;;23.67;13.07;;;;;;;-1.99;83.70;102443.66;4974749;28;20042;-76
2022/03/23 03:35:12;;;;;;;19.00;11.67;;;;;;;-2.00;83.94;102444.47;4971526;28;20109;-76
2022/03/23 03:37:40;;;;;;;23.20;12.30;;;;;;;-1.99;83.94;102446.25;4964790;28;20046;-75
2022/03/23 03:40:08;;;;;;;20.73;12.40;;;;;;;-2.03;84.11;102436.50;4940940;28;20047;-76
2022/03/23 03:42:35;;;;;;;21.07;12.63;;;;;;;-2.06;83.84;102451.88;4961690;28;20457;-76
2022/03/23 03:47:36;;;;;;;20.20;11.77;;;;;;;-2.09;83.18;102446.53;4999251;28;20577;-81
2022/03/23 03:50:03;;;;;;;22.47;12.47;;;;;;;-2.08;83.26;102444.81;4970782;28;20057;-80
2022/03/23 03:52:30;;;;;;;21.43;12.53;;;;;;;-2.07;83.76;102444.00;4959513;28;20048;-81
2022/03/23 03:54:56;;;;;;;21.03;11.90;;;;;;;-2.09;83.36;102446.53;4961619;28;20448;-81
2022/03/23 03:57:23;;;;;;;21.53;12.93;;;;;;;-2.12;84.18;102445.41;4977299;28;20047;-79
2022/03/23 03:59:50;;;;;;;23.90;13.60;;;;;;;-2.10;83.75;102446.41;4978735;28;20096;-80
2022/03/23 04:02:16;;;;;;;20.87;12.60;;;;;;;-2.05;83.57;102442.41;4961912;28;20031;-80
2022/03/23 04:04:43;;;;;;;24.30;14.27;;;;;;;-2.11;84.05;102453.28;4959590;28;20049;-80
2022/03/23 04:07:10;;;;;;;22.13;12.83;;;;;;;-2.07;83.46;102450.09;4975763;28;20391;-81
2022/03/23 04:09:37;;;;;;;21.80;12.97;;;;;;;-2.12;83.86;102451.50;4978036;28;20052;-80
2022/03/23 04:12:04;;;;;;;22.87;11.43;;;;;;;-2.15;83.76;102446.16;4970362;28;20521;-80
2022/03/23 04:14:31;;;;;;;22.37;12.47;;;;;;;-2.03;83.68;102439.09;4967715;28;20099;-80
2022/03/23 04:16:57;;;;;;;26.43;14.67;;;;;;;-2.03;83.90;102452.03;4963762;28;20888;-80
2022/03/23 04:19:24;;;;;;;21.07;12.23;;;;;;;-2.13;84.10;102448.81;4959871;28;20110;-81
2022/03/23 04:21:51;;;;;;;23.10;12.60;;;;;;;-2.29;85.35;102449.59;4977256;28;20042;-80
2022/03/23 04:24:17;;;;;;;20.60;12.83;;;;;;;-2.31;85.11;102446.91;4968288;28;20238;-80
2022/03/23 04:26:44;;;;;;;22.33;13.20;;;;;;;-2.34;85.42;102449.34;4962333;28;20497;-80
2022/03/23 04:29:11;;;;;;;19.17;13.17;;;;;;;-2.41;85.57;102447.16;4977964;28;20039;-79
2022/03/23 04:31:38;;;;;;;22.37;12.40;;;;;;;-2.41;85.83;102442.00;4959699;28;20046;-82
2022/03/23 04:34:05;;;;;;;25.37;14.00;;;;;;;-2.40;85.93;102441.19;4945426;28;20046;-82
2022/03/23 04:36:32;;;;;;;22.87;12.83;;;;;;;-2.43;85.81;102441.03;4960010;28;20042;-79
2022/03/23 04:38:59;;;;;;;20.27;12.27;;;;;;;-2.37;85.36;102445.66;4943753;28;20047;-77
2022/03/23 04:41:26;;;;;;;25.93;14.33;;;;;;;-2.41;85.61;102444.59;4985479;28;20039;-81
2022/03/23 04:43:53;;;;;;;26.33;14.07;;;;;;;-2.49;86.45;102450.09;4976376;28;20126;-81
2022/03/23 04:46:19;;;;;;;22.00;13.90;;;;;;;-2.52;86.24;102445.63;4968593;28;20042;-82
2022/03/23 04:48:46;;;;;;;26.90;14.17;;;;;;;-2.53;86.49;102443.81;4973678;28;20629;-80
2022/03/23 04:51:13;;;;;;;23.37;13.17;;;;;;;-2.53;86.18;102451.59;4973493;28;20122;-80
2022/03/23 04:53:39;;;;;;;22.90;13.27;;;;;;;-2.58;86.50;102448.75;4980404;28;20034;-81
2022/03/23 04:56:06;;;;;;;24.73;13.97;;;;;;;-2.55;86.60;102442.84;4991080;28;20038;-81
2022/03/23 04:58:34;;;;;;;27.07;14.47;;;;;;;-2.58;87.00;102453.03;4978196;28;20270;-80
2022/03/23 05:01:01;;;;;;;25.90;14.30;;;;;;;-2.58;87.17;102448.75;4995133;28;20054;-80
2022/03/23 05:03:28;;;;;;;24.63;13.93;;;;;;;-2.56;87.40;102444.53;4979313;28;20053;-81
2022/03/23 05:05:55;;;;;;;22.37;13.30;;;;;;;-2.52;87.67;102447.31;4965994;28;20445;-80
2022/03/23 05:08:22;;;;;;;23.93;13.77;;;;;;;-2.49;87.73;102451.00;4962464;28;21003;-82
2022/03/23 05:10:49;;;;;;;27.67;14.67;;;;;;;-2.41;88.06;102454.94;4978258;28;20038;-79
2022/03/23 05:13:15;;;;;;;27.87;15.70;;;;;;;-2.37;87.81;102453.41;4966508;28;20039;-81
2022/03/23 05:15:42;;;;;;;25.10;15.33;;;;;;;-2.38;87.85;102452.53;4968793;28;20055;-82
2022/03/23 05:18:11;;;;;;;21.00;13.30;;;;;;;-2.43;88.36;102455.66;4959343;28;20046;-81
2022/03/23 05:20:38;;;;;;;26.57;15.37;;;;;;;-2.53;89.40;102445.53;4971562;28;20066;-79
2022/03/23 05:23:05;;;;;;;23.17;13.43;;;;;;;-2.62;90.57;102446.75;4979744;28;20101;-82
2022/03/23 05:25:32;;;;;;;22.47;13.83;;;;;;;-2.62;91.11;102454.50;4948338;28;20046;-79
2022/03/23 05:27:58;;;;;;;26.37;15.43;;;;;;;-2.56;90.40;102443.66;4960845;28;20054;-80
2022/03/23 05:30:25;;;;;;;26.43;14.03;;;;;;;-2.51;89.09;102444.84;4951311;28;20042;-79
2022/03/23 05:32:52;;;;;;;23.73;14.40;;;;;;;-2.56;89.85;102449.72;4947497;28;20050;-80
2022/03/23 05:35:18;;;;;;;24.33;14.17;;;;;;;-2.57;89.62;102449.63;4963385;28;20043;-82
2022/03/23 05:37:45;;;;;;;24.40;13.50;;;;;;;-2.52;89.34;102457.66;4954286;28;20042;-80
2022/03/23 05:40:13;;;;;;;30.17;15.33;;;;;;;-2.44;89.12;102448.66;4994087;28;20070;-79
2022/03/23 05:42:40;;;;;;;24.30;13.67;;;;;;;-2.49;89.39;102443.22;4976319;28;20035;-81
2022/03/23 05:45:07;;;;;;;24.23;14.30;;;;;;;-2.47;89.45;102443.31;4981917;28;20070;-80
2022/03/23 05:47:36;;;;;;;27.60;14.23;;;;;;;-2.48;89.92;102446.72;4970970;28;20050;-80
2022/03/23 05:50:03;;;;;;;25.87;14.17;;;;;;;-2.43;88.87;102446.19;4961189;28;20050;-81
2022/03/23 05:52:30;;;;;;;26.20;15.37;;;;;;;-2.35;89.14;102447.56;4978403;28;20054;-81
2022/03/23 05:54:56;;;;;;;27.57;13.97;;;;;;;-2.28;89.50;102452.28;4958583;28;20043;-81
2022/03/23 05:57:23;;;;;;;28.77;14.50;;;;;;;-2.18;89.66;102463.22;4977403;28;20042;-81
2022/03/23 05:59:50;;;;;;;22.63;13.63;;;;;;;-2.15;90.47;102453.91;4994411;28;20094;-82
2022/03/23 06:02:16;;;;;;;28.90;14.57;;;;;;;-2.15;90.68;102453.91;4969807;28;20458;-80
2022/03/23 06:04:43;;;;;;;24.70;13.77;;;;;;;-2.17;91.07;102457.22;4942696;28;20416;-79
2022/03/23 06:07:10;;;;;;;26.90;14.87;;;;;;;-2.14;90.94;102452.22;4959418;28;20564;-81
2022/03/23 06:09:39;;;;;;;24.07;14.53;;;;;;;-2.09;91.52;102453.41;4976912;28;20046;-81
2022/03/23 06:12:09;;;;;;;30.03;14.23;;;;;;;-2.03;91.46;102458.91;4995735;28;20450;-82
2022/03/23 06:14:35;;;;;;;24.00;14.40;;;;;;;-2.11;92.21;102455.88;4962012;28;20382;-82
2022/03/23 06:17:02;;;;;;;28.63;16.17;;;;;;;-2.12;92.63;102451.50;4971638;28;20046;-81
2022/03/23 06:19:29;;;;;;;24.23;15.00;;;;;;;-2.06;92.61;102456.16;4978427;28;20110;-79
2022/03/23 06:21:55;;;;;;;28.83;16.37;;;;;;;-2.04;92.68;102455.44;4963268;28;20109;-80
2022/03/23 06:24:22;;;;;;;27.00;15.53;;;;;;;-1.99;92.63;102456.59;4962000;28;20080;-82
2022/03/23 06:26:49;;;;;;;26.30;15.03;;;;;;;-1.90;92.98;102455.38;4961643;28;20821;-80
2022/03/23 06:29:15;;;;;;;31.20;16.53;;;;;;;-1.76;92.52;102457.06;4960437;28;20046;-81
2022/03/23 06:31:42;;;;;;;24.60;14.50;;;;;;;-1.72;92.39;102459.03;4973515;28;20143;-82
2022/03/23 06:34:09;;;;;;;25.37;13.93;;;;;;;-1.70;93.02;102467.78;4960088;28;20391;-82
2022/03/23 06:36:36;;;;;;;30.70;15.67;;;;;;;-1.58;92.78;102455.53;4994547;28;20082;-82
2022/03/23 06:39:05;;;;;;;28.00;16.13;;;;;;;-1.50;92.76;102449.09;4943863;28;20053;-80
2022/03/23 06:41:31;;;;;;;27.77;16.10;;;;;;;-1.43;92.69;102455.50;4986005;28;20034;-80
2022/03/23 06:43:59;;;;;;;30.47;15.23;;;;;;;-1.38;93.09;102464.44;4940978;28;20038;-81
2022/03/23 06:46:25;;;;;;;23.90;14.90;;;;;;;-1.30;92.87;102457.09;4977200;28;20038;-81
2022/03/23 06:48:52;;;;;;;25.90;15.13;;;;;;;-1.24;93.37;102460.94;4975431;28;20046;-79
2022/03/23 06:51:19;;;;;;;25.83;14.00;;;;;;;-1.20;93.92;102455.09;4942050;28;20050;-81
2022/03/23 06:53:45;;;;;;;22.20;13.57;;;;;;;-1.16;93.88;102458.78;4964721;28;20041;-80
2022/03/23 06:56:12;;;;;;;26.50;14.50;;;;;;;-1.06;93.86;102460.19;4961112;28;20046;-79
2022/03/23 06:58:39;;;;;;;22.83;14.23;;;;;;;-0.79;93.80;102456.47;4975608;28;20137;-80
2022/03/23 07:01:05;;;;;;;24.70;14.27;;;;;;;-0.30;92.77;102459.09;4973210;28;20042;-80
2022/03/23 07:03:32;;;;;;;23.43;13.30;;;;;;;0.46;88.49;102456.91;4944411;28;20572;-80
2022/03/23 07:05:59;;;;;;;22.20;13.33;;;;;;;0.97;86.55;102455.03;4955371;28;20050;-79
2022/03/23 07:11:14;;;;;;;18.57;12.33;;;;;;;2.04;79.18;102452.94;4977774;28;20046;-79
2022/03/23 07:13:40;;;;;;;20.40;13.20;;;;;;;2.44;77.04;102447.69;4955110;28;20049;-79
2022/03/23 07:16:07;;;;;;;19.37;12.30;;;;;;;2.59;76.90;102447.41;4975786;28;20050;-81
2022/03/23 07:18:34;;;;;;;23.30;14.17;;;;;;;2.73;76.59;102445.38;4974941;28;20084;-80
2022/03/23 07:21:04;;;;;;;20.63;13.20;;;;;;;2.64;76.59;102458.06;4959078;28;20049;-80
2022/03/23 07:23:31;;;;;;;23.17;13.03;;;;;;;2.91;76.65;102450.44;4949760;28;20098;-82
2022/03/23 07:26:01;;;;;;;20.63;13.77;;;;;;;3.06;77.86;102443.19;4956327;28;20042;-81
2022/03/23 07:28:27;;;;;;;20.63;12.87;;;;;;;3.09;76.45;102452.03;4963401;28;20553;-82
2022/03/23 07:30:55;;;;;;;19.47;12.83;;;;;;;3.34;76.96;102448.63;4952865;28;20047;-82
2022/03/23 07:33:22;;;;;;;23.70;13.70;;;;;;;3.44;78.77;102444.63;4970194;28;20049;-81
2022/03/23 07:35:49;;;;;;;18.43;12.63;;;;;;;3.60;76.66;102440.88;4975507;28;20050;-80
2022/03/23 07:38:16;;;;;;;25.37;14.30;;;;;;;3.68;76.04;102448.16;4956773;28;20042;-81
2022/03/23 07:40:42;;;;;;;22.37;13.60;;;;;;;3.77;79.16;102438.84;4953941;28;20277;-81
2022/03/23 07:43:09;;;;;;;21.70;13.80;;;;;;;3.93;78.43;102443.78;4923117;28;20046;-79
2022/03/23 07:45:36;;;;;;;25.77;14.90;;;;;;;4.11;78.13;102448.78;4981742;28;20051;-78
2022/03/23 07:48:03;;;;;;;26.47;15.63;;;;;;;4.45;77.28;102456.03;4958825;28;20045;-81
2022/03/23 07:50:30;;;;;;;23.57;14.67;;;;;;;4.72;76.13;102451.72;4942640;28;20042;-80
2022/03/23 07:52:56;;;;;;;24.90;15.40;;;;;;;4.83;77.04;102452.06;4965346;28;20045;-80
2022/03/23 07:55:23;;;;;;;22.83;14.93;;;;;;;5.09;74.72;102453.75;4941886;28;20509;-82
2022/03/23 07:57:50;;;;;;;27.83;16.87;;;;;;;5.34;69.94;102446.63;4956684;28;20046;-80
2022/03/23 08:00:17;;;;;;;26.63;16.33;;;;;;;5.70;68.51;102454.66;4938452;28;20445;-81
2022/03/23 08:02:44;;;;;;;27.40;17.80;;;;;;;6.02;65.26;102445.09;4972410;28;20054;-82
2022/03/23 08:05:11;;;;;;;32.17;19.30;;;;;;;6.24;59.69;102451.81;4972687;28;20050;-81
2022/03/23 08:07:37;;;;;;;33.83;20.63;;;;;;;6.25;59.98;102450.94;4958613;28;20050;-82
2022/03/23 08:10:05;;;;;;;35.40;18.90;;;;;;;6.44;60.24;102449.66;4958051;28;20167;-82
2022/03/23 08:12:32;;;;;;;30.47;18.10;;;;;;;6.55;61.69;102447.31;4958351;28;20311;-84
2022/03/23 08:14:59;;;;;;;33.30;19.87;;;;;;;6.76;58.40;102451.34;4972612;28;20046;-81
2022/03/23 08:17:25;;;;;;;30.60;19.97;;;;;;;7.04;55.78;102442.34;4951008;28;20520;-83
2022/03/23 08:20:38;;;;;;;31.00;19.87;;;;;;;7.40;53.67;102444.03;4971394;28;20042;-83
2022/03/23 08:22:42;;;;;;;32.67;20.67;;;;;;;8.01;48.91;102441.72;4964334;28;20133;-83
2022/03/23 08:25:09;;;;;;;36.20;21.07;;;;;;;7.95;49.25;102445.13;4958397;28;20514;-81
2022/03/23 08:27:35;;;;;;;33.57;20.60;;;;;;;8.17;49.02;102449.03;4957979;28;20413;-82
2022/03/23 08:30:02;;;;;;;29.47;19.63;;;;;;;8.16;49.60;102448.16;4958104;28;20070;-81
2022/03/23 08:32:29;;;;;;;32.93;20.17;;;;;;;8.27;48.74;102439.56;4978546;28;20145;-82
2022/03/23 08:34:56;;;;;;;33.47;20.80;;;;;;;8.65;46.84;102441.09;4969218;28;20035;-82
2022/03/23 08:37:22;;;;;;;30.67;20.70;;;;;;;8.85;46.72;102443.16;4983414;28;20054;-83
2022/03/23 08:39:49;;;;;;;30.07;20.17;;;;;;;8.79;47.34;102446.59;4983118;28;20050;-82
2022/03/23 08:42:16;;;;;;;33.33;20.10;;;;;;;8.76;48.09;102446.56;4966194;28;20042;-80
2022/03/23 08:44:45;;;;;;;34.77;21.97;;;;;;;8.96;46.25;102444.22;4965278;28;20089;-81
2022/03/23 08:47:12;;;;;;;30.47;19.73;;;;;;;9.06;46.70;102446.09;4950928;28;20537;-83
2022/03/23 08:49:39;;;;;;;34.57;21.00;;;;;;;9.32;44.79;102444.72;4949931;28;20506;-83
2022/03/23 08:52:06;;;;;;;29.37;19.87;;;;;;;9.39;44.06;102448.31;4984226;28;20042;-81
2022/03/23 08:54:32;;;;;;;35.80;21.52;;;;;;;9.76;43.66;102448.78;4963090;28;20051;-82
2022/03/23 08:56:59;;;;;;;30.67;20.00;;;;;;;9.70;44.59;102441.69;4949533;28;20042;-84
2022/03/23 08:59:25;;;;;;;31.38;19.98;;;;;;;9.86;42.41;102440.09;4981754;28;20069;-82
2022/03/23 09:01:52;;;;;;;30.67;20.23;;;;;;;10.06;42.06;102443.81;4972052;28;20050;-83
2022/03/23 09:04:19;;;;;;;29.15;20.17;;;;;;;10.52;41.27;102436.38;4963865;28;20402;-84
2022/03/23 09:06:46;;;;;;;29.70;18.90;;;;;;;11.03;39.81;102436.72;4944050;28;20042;-81
2022/03/23 09:09:13;;;;;;;27.20;18.45;;;;;;;11.27;38.02;102432.44;4973159;28;20446;-83
2022/03/23 09:11:43;;;;;;;28.70;18.35;;;;;;;11.27;38.92;102429.81;4955181;28;20050;-83
2022/03/23 09:14:11;;;;;;;27.80;17.88;;;;;;;11.68;37.71;102436.13;4947883;28;20031;-81
2022/03/23 09:16:39;;;;;;;26.42;17.48;;;;;;;12.04;35.45;102430.97;4961406;28;20437;-81
2022/03/23 09:19:06;;;;;;;32.55;19.23;;;;;;;12.28;35.17;102427.47;4958478;28;20643;-83
2022/03/23 09:21:33;;;;;;;26.10;17.73;;;;;;;12.37;34.79;102423.94;4964712;28;20527;-81
2022/03/23 09:23:59;;;;;;;27.63;18.80;;;;;;;12.52;33.61;102436.28;4965053;28;20086;-83
2022/03/23 09:26:26;;;;;;;27.30;18.38;;;;;;;12.84;32.92;102420.34;4975247;28;20042;-81
2022/03/23 09:28:53;;;;;;;28.20;17.33;;;;;;;13.01;34.01;102422.97;4947240;28;20039;-83
2022/03/23 09:31:19;;;;;;;25.88;18.20;;;;;;;13.38;32.52;102418.47;4951893;28;20390;-83
2022/03/23 09:33:48;;;;;;;24.50;17.35;;;;;;;13.56;31.61;102413.09;4947089;28;20122;-85
2022/03/23 09:39:02;;;;;;;23.92;16.17;;;;;;;14.03;31.36;102418.09;4981935;28;20034;-83
2022/03/23 09:41:31;;;;;;;22.35;14.80;;;;;;;14.11;29.31;102414.50;4965382;28;20093;-79
2022/03/23 09:43:58;;;;;;;44.97;17.75;;;;;;;14.14;29.38;102430.47;4960265;28;20066;-80
2022/03/23 09:46:25;;;;;;;26.65;16.30;;;;;;;14.37;28.46;102423.16;4994083;28;20042;-79
2022/03/23 09:48:51;;;;;;;20.77;15.45;;;;;;;14.30;27.28;102421.47;4957167;28;20039;-79
2022/03/23 09:51:19;;;;;;;22.13;15.48;;;;;;;14.52;28.27;102428.41;4944705;28;20051;-78
2022/03/23 09:53:46;;;;;;;21.52;15.63;;;;;;;14.48;28.24;102421.34;4954983;28;20088;-78
2022/03/23 09:56:13;;;;;;;23.33;14.85;;;;;;;14.69;28.12;102416.72;4964062;28;20053;-79
2022/03/23 09:58:43;;;;;;;20.95;15.18;;;;;;;15.08;28.84;102424.31;5052954;23;20051;-78
2022/03/23 10:01:28;;;;;;;21.17;15.45;;;;;;;15.17;27.00;102416.22;4977654;28;20049;-78
2022/03/23 10:04:17;;;;;;;23.70;16.75;;;;;;;15.09;27.52;102418.09;4972399;28;20050;-77
2022/03/23 10:07:10;;;;;;;23.85;14.25;;;;;;;15.44;28.91;102416.78;4967209;28;20042;-77
2022/03/23 10:09:40;;;;;;;20.27;15.57;;;;;;;15.66;27.03;102407.66;4969414;28;20058;-77
2022/03/23 10:12:21;;;;;;;17.25;14.52;;;;;;;15.85;27.38;102415.38;4988344;28;20046;-77
2022/03/23 10:15:45;;;;;;;18.92;14.45;;;;;;;15.58;27.35;102405.97;4989740;28;20045;-77
2022/03/23 10:18:20;;;;;;;20.02;15.77;;;;;;;15.93;27.70;102408.16;4989771;28;20042;-77
2022/03/23 10:20:47;;;;;;;19.95;14.80;;;;;;;16.21;27.29;102401.47;4999675;28;20058;-78
2022/03/23 10:23:19;;;;;;;19.75;15.25;;;;;;;16.21;26.69;102416.59;4936671;28;20038;-78
2022/03/23 10:25:46;;;;;;;19.58;15.98;;;;;;;16.04;25.72;102406.19;4961997;28;20046;-76
2022/03/23 10:28:13;;;;;;;21.77;16.10;;;;;;;16.00;27.03;102410.72;4984959;28;20402;-78
2022/03/23 10:30:42;;;;;;;24.58;17.35;;;;;;;16.11;26.83;102405.19;4957808;28;20082;-78
2022/03/23 10:33:20;;;;;;;23.42;16.55;;;;;;;16.13;26.60;102411.38;4971946;28;20413;-78
2022/03/23 10:35:47;;;;;;;22.08;16.63;;;;;;;16.33;27.89;102413.75;4973661;28;20042;-78
2022/03/23 10:38:15;;;;;;;21.00;15.27;;;;;;;16.44;25.74;102405.56;4956337;28;20046;-78
2022/03/23 10:40:44;;;;;;;22.88;15.20;;;;;;;16.38;25.44;102408.31;4972914;28;20050;-78
2022/03/23 10:43:14;;;;;;;21.35;15.52;;;;;;;16.28;25.87;102396.94;4988317;28;20042;-77
2022/03/23 10:45:40;;;;;;;20.77;15.27;;;;;;;16.45;26.24;102407.31;4989318;28;20057;-77
2022/03/23 10:48:09;;;;;;;22.40;15.48;;;;;;;16.65;26.85;102396.28;4970862;28;20042;-77
2022/03/23 10:50:36;;;;;;;19.55;14.73;;;;;;;16.95;26.28;102394.88;4972236;28;20151;-77
2022/03/23 10:53:06;;;;;;;21.83;14.93;;;;;;;16.99;26.40;102393.94;4954161;28;20042;-78
2022/03/23 10:55:38;;;;;;;20.92;15.65;;;;;;;16.67;25.95;102398.03;4959006;28;20042;-77
2022/03/23 10:58:18;;;;;;;22.00;15.27;;;;;;;16.84;25.50;102392.41;4986910;28;20065;-77
2022/03/23 11:00:44;;;;;;;20.15;15.23;;;;;;;16.65;24.88;102394.53;4966588;28;20705;-78
2022/03/23 11:03:11;;;;;;;19.88;14.73;;;;;;;16.91;25.46;102382.50;4944839;28;20133;-79
2022/03/23 11:05:41;;;;;;;20.33;14.75;;;;;;;16.91;25.80;102385.19;4969635;28;20202;-77
2022/03/23 11:08:13;;;;;;;18.42;15.07;;;;;;;16.56;25.31;102378.66;4959983;28;20050;-78
2022/03/23 11:16:30;;;;;;;20.35;15.57;;;;;;;17.48;25.84;102379.53;4956550;28;20162;-78
2022/03/23 11:18:58;;;;;;;18.60;14.13;;;;;;;17.74;25.65;102369.19;4953615;28;20047;-79
2022/03/23 11:21:28;;;;;;;21.60;15.05;;;;;;;17.86;25.23;102368.91;4972157;28;20501;-80
2022/03/23 11:23:55;;;;;;;17.98;13.55;;;;;;;17.80;24.03;102365.47;4948668;28;20539;-79
2022/03/23 11:26:21;;;;;;;19.52;14.93;;;;;;;17.65;23.95;102364.00;4972925;28;20084;-79
2022/03/23 11:28:49;;;;;;;17.25;13.80;;;;;;;17.30;23.82;102362.09;4956094;28;20054;-78
2022/03/23 11:31:19;;;;;;;18.83;14.18;;;;;;;17.56;24.81;102361.53;4986369;28;20490;-78
2022/03/23 11:33:49;;;;;;;112.13;23.15;;;;;;;17.54;24.30;102360.69;4985091;28;20070;-78
2022/03/23 11:36:19;;;;;;;17.50;13.95;;;;;;;17.28;23.92;102358.59;4986287;28;20074;-78
2022/03/23 11:38:48;;;;;;;19.25;13.90;;;;;;;17.05;24.60;102351.06;4982095;28;20081;-78
2022/03/23 11:41:16;;;;;;;18.58;12.98;;;;;;;17.13;25.22;102351.78;4948447;28;20058;-78